Capitol Reef Natl Park, Utah
Current Conditions -  °F | °C
As of 4:53 PM on Wednesday 28 Jan 2015 (Local Time) from KBCE Reporting Station
Clear Clear  
Wind Chill: 44°   Ceiling: Unl
Heat Index: 44°   Visibility: 10mi
Dew Point: 26°   Wind: 0mph
Humidity: 49%   Direction: NA
Pressure: 30.26"   Gusts: NA
Location:  38.24°N, 111.26°W
Report Text: KBCE 282353Z AUTO 00000KT 10SM CLR 07/M03 A3026 RMK AO2 SLP211 T00671033 10083 20028 55002 $
Loading
Personal Weather Stations






























Interactive Weather Map New forecast layout! Learn more

10-Day Weather Forecast

Advertisements
Track Severe Weather on mobile